Metar/Speci

METEOROLOGICAL AERODROME REPORT
STASIUN METEOROLOGI HANG NADIM BATAM

ADDS - METARS form results

(0736 UTC 24 August 2019)
Data provider http://aviationweather.gov/metar/data/
 
METAR text: WIDD 240700Z 12005KT 9999 FEW014 32/21 Q1011
Conditions at: WIDD (HANG NADIM , ID) observed 0700 UTC 24 August 2019
Temperature: 32.0°C (90°F)
Dewpoint: 21.0°C (70°F) [RH = 52%]
Pressure (altimeter): 29.85 inches Hg (1011.0 mb)
Winds: from the ESE (120 degrees) at 6 MPH (5 knots; 2.6 m/s)
Visibility: 6 or more miles (10+ km)
Ceiling: at least 12,000 feet AGL
Clouds: few clouds at 1400 feet AGL
Weather: no significant weather observed at this time

Forecast for: WIDD (HANG NADIM , ID)
Text: TAF WIDD 240500Z 2406/2506 14009KT 9999 SCT014
Forecast period: 0600 UTC 24 August 2019 to 0600 UTC 25 August 2019
Forecast type: FROM: standard forecast or significant change
Winds: from the SE (140 degrees) at 10 MPH (9 knots; 4.6 m/s)
Visibility: 6 or more miles 10+ km)
Ceiling: at least 12,000 feet AGL
Clouds: scattered clouds at 1400 feet AGL
Weather: no significant weather forecast for this period

Informasi METAR/SPECI dapat diakses juga di http://aviation.bmkg.go.id